sensor_id;sensor_type;location;lat;lon;timestamp;temperature;humidity
47521;DHT22;32291;52.010;4.446;2022-08-05T00:00:34;19.20;99.90
47521;DHT22;32291;52.010;4.446;2022-08-05T00:01:37;19.20;99.90
47521;DHT22;32291;52.010;4.446;2022-08-05T00:02:38;19.20;99.90
47521;DHT22;32291;52.010;4.446;2022-08-05T00:03:41;19.10;99.90
47521;DHT22;32291;52.010;4.446;2022-08-05T00:04:44;19.10;99.90
47521;DHT22;32291;52.010;4.446;2022-08-05T00:05:47;19.10;99.90
47521;DHT22;32291;52.010;4.446;2022-08-05T00:06:49;19.10;99.90
47521;DHT22;32291;52.010;4.446;2022-08-05T00:07:51;19.10;99.90
47521;DHT22;32291;52.010;4.446;2022-08-05T00:08:53;19.10;99.90
47521;DHT22;32291;52.010;4.446;2022-08-05T00:09:55;19.10;99.90
47521;DHT22;32291;52.010;4.446;2022-08-05T00:10:58;19.10;99.90
47521;DHT22;32291;52.010;4.446;2022-08-05T00:12:05;19.10;99.90
47521;DHT22;32291;52.010;4.446;2022-08-05T00:13:08;19.10;99.90
47521;DHT22;32291;52.010;4.446;2022-08-05T00:14:10;19.10;99.90
47521;DHT22;32291;52.010;4.446;2022-08-05T00:15:12;19.10;99.90
47521;DHT22;32291;52.010;4.446;2022-08-05T00:16:14;19.10;99.90
47521;DHT22;32291;52.010;4.446;2022-08-05T00:17:16;19.10;99.90
47521;DHT22;32291;52.010;4.446;2022-08-05T00:18:19;19.00;99.90
47521;DHT22;32291;52.010;4.446;2022-08-05T00:19:22;19.10;99.90
47521;DHT22;32291;52.010;4.446;2022-08-05T00:20:24;19.10;99.90
47521;DHT22;32291;52.010;4.446;2022-08-05T00:21:26;19.10;99.90
47521;DHT22;32291;52.010;4.446;2022-08-05T00:22:28;19.10;99.90
47521;DHT22;32291;52.010;4.446;2022-08-05T00:23:30;19.10;99.90
47521;DHT22;32291;52.010;4.446;2022-08-05T00:24:32;19.10;99.90
47521;DHT22;32291;52.010;4.446;2022-08-05T00:25:35;19.00;99.90
47521;DHT22;32291;52.010;4.446;2022-08-05T00:26:37;19.00;99.90
47521;DHT22;32291;52.010;4.446;2022-08-05T00:27:39;19.00;99.90
47521;DHT22;32291;52.010;4.446;2022-08-05T00:28:41;19.00;99.90
47521;DHT22;32291;52.010;4.446;2022-08-05T00:29:45;19.00;99.90
47521;DHT22;32291;52.010;4.446;2022-08-05T00:30:47;19.00;99.90
47521;DHT22;32291;52.010;4.446;2022-08-05T00:31:49;19.00;99.90
47521;DHT22;32291;52.010;4.446;2022-08-05T00:32:51;18.90;99.90
47521;DHT22;32291;52.010;4.446;2022-08-05T00:33:53;19.00;99.90
47521;DHT22;32291;52.010;4.446;2022-08-05T00:34:55;19.00;99.90
47521;DHT22;32291;52.010;4.446;2022-08-05T00:35:57;18.90;99.90
47521;DHT22;32291;52.010;4.446;2022-08-05T00:36:59;19.00;99.90
47521;DHT22;32291;52.010;4.446;2022-08-05T00:38:01;19.00;99.90
47521;DHT22;32291;52.010;4.446;2022-08-05T00:39:03;18.90;99.90
47521;DHT22;32291;52.010;4.446;2022-08-05T00:40:06;19.00;99.90
47521;DHT22;32291;52.010;4.446;2022-08-05T00:41:09;18.90;99.90
47521;DHT22;32291;52.010;4.446;2022-08-05T00:42:11;18.90;99.90
47521;DHT22;32291;52.010;4.446;2022-08-05T00:43:15;18.90;99.90
47521;DHT22;32291;52.010;4.446;2022-08-05T00:44:24;18.90;99.90
47521;DHT22;32291;52.010;4.446;2022-08-05T00:45:26;18.90;99.90
47521;DHT22;32291;52.010;4.446;2022-08-05T00:46:30;18.90;99.90
47521;DHT22;32291;52.010;4.446;2022-08-05T00:47:33;18.90;99.90
47521;DHT22;32291;52.010;4.446;2022-08-05T00:48:35;18.80;99.90
47521;DHT22;32291;52.010;4.446;2022-08-05T00:49:37;18.80;99.90
47521;DHT22;32291;52.010;4.446;2022-08-05T00:50:40;18.90;99.90
47521;DHT22;32291;52.010;4.446;2022-08-05T00:51:45;18.90;99.90
47521;DHT22;32291;52.010;4.446;2022-08-05T00:52:47;18.80;99.90
47521;DHT22;32291;52.010;4.446;2022-08-05T00:53:51;18.80;99.90
47521;DHT22;32291;52.010;4.446;2022-08-05T00:54:53;18.80;99.90
47521;DHT22;32291;52.010;4.446;2022-08-05T00:55:55;18.80;99.90
47521;DHT22;32291;52.010;4.446;2022-08-05T00:56:57;18.80;99.90
47521;DHT22;32291;52.010;4.446;2022-08-05T00:57:59;18.80;99.90
47521;DHT22;32291;52.010;4.446;2022-08-05T00:59:02;18.80;99.90
47521;DHT22;32291;52.010;4.446;2022-08-05T01:00:05;18.80;99.90
47521;DHT22;32291;52.010;4.446;2022-08-05T01:01:09;18.80;99.90
47521;DHT22;32291;52.010;4.446;2022-08-05T01:02:13;18.80;99.90
47521;DHT22;32291;52.010;4.446;2022-08-05T01:03:15;18.80;99.90
47521;DHT22;32291;52.010;4.446;2022-08-05T01:04:16;18.80;99.90
47521;DHT22;32291;52.010;4.446;2022-08-05T01:05:19;18.80;99.90
47521;DHT22;32291;52.010;4.446;2022-08-05T01:06:21;18.80;99.90
47521;DHT22;32291;52.010;4.446;2022-08-05T01:07:23;18.80;99.90
47521;DHT22;32291;52.010;4.446;2022-08-05T01:08:25;18.80;99.90
47521;DHT22;32291;52.010;4.446;2022-08-05T01:09:27;18.80;99.90
47521;DHT22;32291;52.010;4.446;2022-08-05T01:10:51;18.80;99.90
47521;DHT22;32291;52.010;4.446;2022-08-05T01:12:05;18.80;99.90
47521;DHT22;32291;52.010;4.446;2022-08-05T01:13:22;18.80;99.90
47521;DHT22;32291;52.010;4.446;2022-08-05T01:14:58;18.80;99.90
47521;DHT22;32291;52.010;4.446;2022-08-05T01:16:12;18.80;99.90
47521;DHT22;32291;52.010;4.446;2022-08-05T01:17:46;18.80;99.90
47521;DHT22;32291;52.010;4.446;2022-08-05T01:18:59;18.80;99.90
47521;DHT22;32291;52.010;4.446;2022-08-05T01:20:49;18.80;99.90
47521;DHT22;32291;52.010;4.446;2022-08-05T01:24:40;18.80;99.90
47521;DHT22;32291;52.010;4.446;2022-08-05T01:29:47;18.80;99.90
47521;DHT22;32291;52.010;4.446;2022-08-05T01:32:24;18.80;99.90
47521;DHT22;32291;52.010;4.446;2022-08-05T01:33:34;18.80;99.90
47521;DHT22;32291;52.010;4.446;2022-08-05T01:34:59;18.80;99.90
47521;DHT22;32291;52.010;4.446;2022-08-05T01:36:14;18.80;99.90
47521;DHT22;32291;52.010;4.446;2022-08-05T01:37:41;18.80;99.90
47521;DHT22;32291;52.010;4.446;2022-08-05T01:38:48;18.80;99.90
47521;DHT22;32291;52.010;4.446;2022-08-05T01:39:52;18.80;99.90
47521;DHT22;32291;52.010;4.446;2022-08-05T01:40:59;18.80;99.90
47521;DHT22;32291;52.010;4.446;2022-08-05T01:42:07;18.80;99.90
47521;DHT22;32291;52.010;4.446;2022-08-05T01:43:16;18.80;99.90
47521;DHT22;32291;52.010;4.446;2022-08-05T01:44:26;18.80;99.90
47521;DHT22;32291;52.010;4.446;2022-08-05T01:45:31;18.80;99.90
47521;DHT22;32291;52.010;4.446;2022-08-05T01:46:40;18.80;99.90
47521;DHT22;32291;52.010;4.446;2022-08-05T01:47:45;18.80;99.90
47521;DHT22;32291;52.010;4.446;2022-08-05T01:48:53;18.80;99.90
47521;DHT22;32291;52.010;4.446;2022-08-05T01:50:00;18.80;99.90
47521;DHT22;32291;52.010;4.446;2022-08-05T01:51:08;18.80;99.90
47521;DHT22;32291;52.010;4.446;2022-08-05T01:52:13;18.80;99.90
47521;DHT22;32291;52.010;4.446;2022-08-05T01:53:17;18.90;99.90
47521;DHT22;32291;52.010;4.446;2022-08-05T01:54:27;18.80;99.90
47521;DHT22;32291;52.010;4.446;2022-08-05T01:55:39;18.80;99.90
47521;DHT22;32291;52.010;4.446;2022-08-05T01:56:49;18.80;99.90
47521;DHT22;32291;52.010;4.446;2022-08-05T01:57:56;18.80;99.90
47521;DHT22;32291;52.010;4.446;2022-08-05T01:59:06;18.80;99.90
47521;DHT22;32291;52.010;4.446;2022-08-05T02:00:18;18.80;99.90
47521;DHT22;32291;52.010;4.446;2022-08-05T02:01:22;18.80;99.90
47521;DHT22;32291;52.010;4.446;2022-08-05T02:02:30;18.80;99.90
47521;DHT22;32291;52.010;4.446;2022-08-05T02:03:43;18.70;99.90
47521;DHT22;32291;52.010;4.446;2022-08-05T02:04:49;18.70;99.90
47521;DHT22;32291;52.010;4.446;2022-08-05T02:05:56;18.70;99.90
47521;DHT22;32291;52.010;4.446;2022-08-05T02:06:59;18.70;99.90
47521;DHT22;32291;52.010;4.446;2022-08-05T02:08:04;18.70;99.90
47521;DHT22;32291;52.010;4.446;2022-08-05T02:09:08;18.70;99.90
47521;DHT22;32291;52.010;4.446;2022-08-05T02:10:10;18.70;99.90
47521;DHT22;32291;52.010;4.446;2022-08-05T02:11:14;18.70;99.90
47521;DHT22;32291;52.010;4.446;2022-08-05T02:12:26;18.60;99.90
47521;DHT22;32291;52.010;4.446;2022-08-05T02:13:59;18.60;99.90
47521;DHT22;32291;52.010;4.446;2022-08-05T02:15:16;18.60;99.90
47521;DHT22;32291;52.010;4.446;2022-08-05T02:16:30;18.60;99.90
47521;DHT22;32291;52.010;4.446;2022-08-05T02:17:52;18.60;99.90
47521;DHT22;32291;52.010;4.446;2022-08-05T02:20:51;18.60;99.90
47521;DHT22;32291;52.010;4.446;2022-08-05T02:23:31;18.50;99.90
47521;DHT22;32291;52.010;4.446;2022-08-05T02:24:40;18.50;99.90
47521;DHT22;32291;52.010;4.446;2022-08-05T02:25:57;18.50;99.90
47521;DHT22;32291;52.010;4.446;2022-08-05T02:27:07;18.40;99.90
47521;DHT22;32291;52.010;4.446;2022-08-05T02:28:13;18.40;99.90
47521;DHT22;32291;52.010;4.446;2022-08-05T02:29:21;18.40;99.90
47521;DHT22;32291;52.010;4.446;2022-08-05T02:30:39;18.40;99.90
47521;DHT22;32291;52.010;4.446;2022-08-05T02:31:49;18.40;99.90
47521;DHT22;32291;52.010;4.446;2022-08-05T02:32:58;18.40;99.90
47521;DHT22;32291;52.010;4.446;2022-08-05T02:34:08;18.40;99.90
47521;DHT22;32291;52.010;4.446;2022-08-05T02:35:15;18.30;99.90
47521;DHT22;32291;52.010;4.446;2022-08-05T02:36:27;18.30;99.90
47521;DHT22;32291;52.010;4.446;2022-08-05T02:37:36;18.30;99.90
47521;DHT22;32291;52.010;4.446;2022-08-05T02:38:45;18.30;99.90
47521;DHT22;32291;52.010;4.446;2022-08-05T02:39:50;18.30;99.90
47521;DHT22;32291;52.010;4.446;2022-08-05T02:40:57;18.30;99.90
47521;DHT22;32291;52.010;4.446;2022-08-05T02:42:01;18.20;99.90
47521;DHT22;32291;52.010;4.446;2022-08-05T02:43:10;18.20;99.90
47521;DHT22;32291;52.010;4.446;2022-08-05T02:44:15;18.20;99.90
47521;DHT22;32291;52.010;4.446;2022-08-05T02:45:20;18.20;99.90
47521;DHT22;32291;52.010;4.446;2022-08-05T02:46:27;18.20;99.90
47521;DHT22;32291;52.010;4.446;2022-08-05T02:47:33;18.20;99.90
47521;DHT22;32291;52.010;4.446;2022-08-05T02:48:37;18.20;99.90
47521;DHT22;32291;52.010;4.446;2022-08-05T02:49:42;18.20;99.90
47521;DHT22;32291;52.010;4.446;2022-08-05T02:50:47;18.20;99.90
47521;DHT22;32291;52.010;4.446;2022-08-05T02:51:53;18.20;99.90
47521;DHT22;32291;52.010;4.446;2022-08-05T02:52:58;18.10;99.90
47521;DHT22;32291;52.010;4.446;2022-08-05T02:54:01;18.10;99.90
47521;DHT22;32291;52.010;4.446;2022-08-05T02:55:05;18.10;99.90
47521;DHT22;32291;52.010;4.446;2022-08-05T02:56:10;18.10;99.90
47521;DHT22;32291;52.010;4.446;2022-08-05T02:57:16;18.00;99.90
47521;DHT22;32291;52.010;4.446;2022-08-05T02:58:21;18.00;99.90
47521;DHT22;32291;52.010;4.446;2022-08-05T02:59:27;18.00;99.90
47521;DHT22;32291;52.010;4.446;2022-08-05T03:00:34;18.00;99.90
47521;DHT22;32291;52.010;4.446;2022-08-05T03:01:39;18.00;99.90
47521;DHT22;32291;52.010;4.446;2022-08-05T03:02:45;18.00;99.90
47521;DHT22;32291;52.010;4.446;2022-08-05T03:03:53;18.00;99.90
47521;DHT22;32291;52.010;4.446;2022-08-05T03:05:01;18.00;99.90
47521;DHT22;32291;52.010;4.446;2022-08-05T03:06:07;18.00;99.90
47521;DHT22;32291;52.010;4.446;2022-08-05T03:07:12;18.00;99.90
47521;DHT22;32291;52.010;4.446;2022-08-05T03:08:16;17.90;99.90
47521;DHT22;32291;52.010;4.446;2022-08-05T03:09:19;17.90;99.90
47521;DHT22;32291;52.010;4.446;2022-08-05T03:10:22;18.00;99.90
47521;DHT22;32291;52.010;4.446;2022-08-05T03:11:26;18.00;99.90
47521;DHT22;32291;52.010;4.446;2022-08-05T03:12:33;17.90;99.90
47521;DHT22;32291;52.010;4.446;2022-08-05T03:13:38;17.90;99.90
47521;DHT22;32291;52.010;4.446;2022-08-05T03:14:40;17.90;99.90
47521;DHT22;32291;52.010;4.446;2022-08-05T03:15:46;17.90;99.90
47521;DHT22;32291;52.010;4.446;2022-08-05T03:16:48;17.90;99.90
47521;DHT22;32291;52.010;4.446;2022-08-05T03:17:52;17.90;99.90
47521;DHT22;32291;52.010;4.446;2022-08-05T03:18:55;17.90;99.90
47521;DHT22;32291;52.010;4.446;2022-08-05T03:19:57;17.80;99.90
47521;DHT22;32291;52.010;4.446;2022-08-05T03:20:59;17.80;99.90
47521;DHT22;32291;52.010;4.446;2022-08-05T03:22:02;17.90;99.90
47521;DHT22;32291;52.010;4.446;2022-08-05T03:23:07;17.80;99.90
47521;DHT22;32291;52.010;4.446;2022-08-05T03:24:11;17.80;99.90
47521;DHT22;32291;52.010;4.446;2022-08-05T03:25:18;17.80;99.90
47521;DHT22;32291;52.010;4.446;2022-08-05T03:26:23;17.80;99.90
47521;DHT22;32291;52.010;4.446;2022-08-05T03:27:25;17.80;99.90
47521;DHT22;32291;52.010;4.446;2022-08-05T03:28:28;17.80;99.90
47521;DHT22;32291;52.010;4.446;2022-08-05T03:29:31;17.70;99.90
47521;DHT22;32291;52.010;4.446;2022-08-05T03:30:34;17.70;99.90
47521;DHT22;32291;52.010;4.446;2022-08-05T03:31:37;17.70;99.90
47521;DHT22;32291;52.010;4.446;2022-08-05T03:32:42;17.70;99.90
47521;DHT22;32291;52.010;4.446;2022-08-05T03:33:44;17.70;99.90
47521;DHT22;32291;52.010;4.446;2022-08-05T03:34:47;17.70;99.90
47521;DHT22;32291;52.010;4.446;2022-08-05T03:35:50;17.70;99.90
47521;DHT22;32291;52.010;4.446;2022-08-05T03:36:53;17.70;99.90
47521;DHT22;32291;52.010;4.446;2022-08-05T03:37:58;17.70;99.90
47521;DHT22;32291;52.010;4.446;2022-08-05T03:39:07;17.60;99.90
47521;DHT22;32291;52.010;4.446;2022-08-05T03:40:09;17.60;99.90
47521;DHT22;32291;52.010;4.446;2022-08-05T03:41:15;17.60;99.90
47521;DHT22;32291;52.010;4.446;2022-08-05T03:42:17;17.60;99.90
47521;DHT22;32291;52.010;4.446;2022-08-05T03:43:20;17.60;99.90
47521;DHT22;32291;52.010;4.446;2022-08-05T03:44:24;17.60;99.90
47521;DHT22;32291;52.010;4.446;2022-08-05T03:45:26;17.60;99.90
47521;DHT22;32291;52.010;4.446;2022-08-05T03:46:28;17.60;99.90
47521;DHT22;32291;52.010;4.446;2022-08-05T03:47:30;17.50;99.90
47521;DHT22;32291;52.010;4.446;2022-08-05T03:48:33;17.50;99.90
47521;DHT22;32291;52.010;4.446;2022-08-05T03:49:35;17.50;99.90
47521;DHT22;32291;52.010;4.446;2022-08-05T03:50:41;17.50;99.90
47521;DHT22;32291;52.010;4.446;2022-08-05T03:51:55;17.50;99.90
47521;DHT22;32291;52.010;4.446;2022-08-05T03:53:27;17.50;99.90
47521;DHT22;32291;52.010;4.446;2022-08-05T03:54:55;17.50;99.90
47521;DHT22;32291;52.010;4.446;2022-08-05T03:56:10;17.50;99.90
47521;DHT22;32291;52.010;4.446;2022-08-05T03:57:30;17.50;99.90
47521;DHT22;32291;52.010;4.446;2022-08-05T03:58:38;17.50;99.90
47521;DHT22;32291;52.010;4.446;2022-08-05T03:59:52;17.50;99.90
47521;DHT22;32291;52.010;4.446;2022-08-05T04:01:02;17.50;99.90
47521;DHT22;32291;52.010;4.446;2022-08-05T04:02:10;17.50;99.90
47521;DHT22;32291;52.010;4.446;2022-08-05T04:03:16;17.50;99.90
47521;DHT22;32291;52.010;4.446;2022-08-05T04:04:22;17.50;99.90
47521;DHT22;32291;52.010;4.446;2022-08-05T04:05:30;17.50;99.90
47521;DHT22;32291;52.010;4.446;2022-08-05T04:06:38;17.50;99.90
47521;DHT22;32291;52.010;4.446;2022-08-05T04:07:43;17.40;99.90
47521;DHT22;32291;52.010;4.446;2022-08-05T04:08:46;17.40;99.90
47521;DHT22;32291;52.010;4.446;2022-08-05T04:09:48;17.20;99.90
47521;DHT22;32291;52.010;4.446;2022-08-05T04:10:51;17.40;99.90
47521;DHT22;32291;52.010;4.446;2022-08-05T04:11:55;17.40;99.90
47521;DHT22;32291;52.010;4.446;2022-08-05T04:12:58;17.40;99.90
47521;DHT22;32291;52.010;4.446;2022-08-05T04:14:03;17.30;99.90
47521;DHT22;32291;52.010;4.446;2022-08-05T04:15:07;17.40;99.90
47521;DHT22;32291;52.010;4.446;2022-08-05T04:16:12;17.40;99.90
47521;DHT22;32291;52.010;4.446;2022-08-05T04:17:14;18.30;99.90
47521;DHT22;32291;52.010;4.446;2022-08-05T04:18:17;17.40;99.90
47521;DHT22;32291;52.010;4.446;2022-08-05T04:19:19;17.30;99.90
47521;DHT22;32291;52.010;4.446;2022-08-05T04:20:22;17.30;99.90
47521;DHT22;32291;52.010;4.446;2022-08-05T04:21:24;17.30;99.90
47521;DHT22;32291;52.010;4.446;2022-08-05T04:22:26;17.30;99.90
47521;DHT22;32291;52.010;4.446;2022-08-05T04:23:28;17.30;99.90
47521;DHT22;32291;52.010;4.446;2022-08-05T04:24:32;17.30;99.90
47521;DHT22;32291;52.010;4.446;2022-08-05T04:25:35;17.30;99.90
47521;DHT22;32291;52.010;4.446;2022-08-05T04:26:37;17.20;99.90
47521;DHT22;32291;52.010;4.446;2022-08-05T04:27:39;17.20;99.90
47521;DHT22;32291;52.010;4.446;2022-08-05T04:28:42;17.30;99.90
47521;DHT22;32291;52.010;4.446;2022-08-05T04:29:44;17.30;99.90
47521;DHT22;32291;52.010;4.446;2022-08-05T04:30:47;17.20;99.90
47521;DHT22;32291;52.010;4.446;2022-08-05T04:31:49;17.20;99.90
47521;DHT22;32291;52.010;4.446;2022-08-05T04:32:52;17.20;99.90
47521;DHT22;32291;52.010;4.446;2022-08-05T04:33:54;17.20;99.90
47521;DHT22;32291;52.010;4.446;2022-08-05T04:34:58;17.20;99.90
47521;DHT22;32291;52.010;4.446;2022-08-05T04:36:00;17.20;99.90
47521;DHT22;32291;52.010;4.446;2022-08-05T04:37:06;17.20;99.90
47521;DHT22;32291;52.010;4.446;2022-08-05T04:38:08;17.20;99.90
47521;DHT22;32291;52.010;4.446;2022-08-05T04:39:11;17.10;99.90
47521;DHT22;32291;52.010;4.446;2022-08-05T04:40:13;17.10;99.90
47521;DHT22;32291;52.010;4.446;2022-08-05T04:41:15;17.20;99.90
47521;DHT22;32291;52.010;4.446;2022-08-05T04:42:17;17.10;99.90
47521;DHT22;32291;52.010;4.446;2022-08-05T04:43:19;17.10;99.90
47521;DHT22;32291;52.010;4.446;2022-08-05T04:44:21;17.10;99.90
47521;DHT22;32291;52.010;4.446;2022-08-05T04:45:23;17.10;99.90
47521;DHT22;32291;52.010;4.446;2022-08-05T04:46:26;17.10;99.90
47521;DHT22;32291;52.010;4.446;2022-08-05T04:47:28;17.00;99.90
47521;DHT22;32291;52.010;4.446;2022-08-05T04:48:30;17.10;99.90
47521;DHT22;32291;52.010;4.446;2022-08-05T04:49:33;17.10;99.90
47521;DHT22;32291;52.010;4.446;2022-08-05T04:50:45;17.00;99.90
47521;DHT22;32291;52.010;4.446;2022-08-05T04:51:49;17.00;99.90
47521;DHT22;32291;52.010;4.446;2022-08-05T04:52:51;17.00;99.90
47521;DHT22;32291;52.010;4.446;2022-08-05T04:53:54;17.00;99.90
47521;DHT22;32291;52.010;4.446;2022-08-05T04:54:56;17.00;99.90
47521;DHT22;32291;52.010;4.446;2022-08-05T04:55:58;17.00;99.90
47521;DHT22;32291;52.010;4.446;2022-08-05T04:57:03;17.00;99.90
47521;DHT22;32291;52.010;4.446;2022-08-05T04:58:08;16.90;99.90
47521;DHT22;32291;52.010;4.446;2022-08-05T04:59:13;16.90;99.90
47521;DHT22;32291;52.010;4.446;2022-08-05T05:00:16;16.90;99.90
47521;DHT22;32291;52.010;4.446;2022-08-05T05:01:19;16.90;99.90
47521;DHT22;32291;52.010;4.446;2022-08-05T05:02:21;16.90;99.90
47521;DHT22;32291;52.010;4.446;2022-08-05T05:03:23;17.20;99.90
47521;DHT22;32291;52.010;4.446;2022-08-05T05:04:25;16.80;99.90
47521;DHT22;32291;52.010;4.446;2022-08-05T05:05:28;16.90;99.90
47521;DHT22;32291;52.010;4.446;2022-08-05T05:06:30;16.90;99.90
47521;DHT22;32291;52.010;4.446;2022-08-05T05:07:33;16.90;99.90
47521;DHT22;32291;52.010;4.446;2022-08-05T05:08:36;16.90;99.90
47521;DHT22;32291;52.010;4.446;2022-08-05T05:09:38;16.90;99.90
47521;DHT22;32291;52.010;4.446;2022-08-05T05:10:43;16.90;99.90
47521;DHT22;32291;52.010;4.446;2022-08-05T05:11:47;16.90;99.90
47521;DHT22;32291;52.010;4.446;2022-08-05T05:12:49;17.40;99.90
47521;DHT22;32291;52.010;4.446;2022-08-05T05:13:52;16.90;99.90
47521;DHT22;32291;52.010;4.446;2022-08-05T05:14:54;16.90;99.90
47521;DHT22;32291;52.010;4.446;2022-08-05T05:15:56;16.90;99.90
47521;DHT22;32291;52.010;4.446;2022-08-05T05:16:59;16.90;99.90
47521;DHT22;32291;52.010;4.446;2022-08-05T05:18:01;16.90;99.90
47521;DHT22;32291;52.010;4.446;2022-08-05T05:19:03;16.90;99.90
47521;DHT22;32291;52.010;4.446;2022-08-05T05:20:07;16.90;99.90
47521;DHT22;32291;52.010;4.446;2022-08-05T05:21:12;17.00;99.90
47521;DHT22;32291;52.010;4.446;2022-08-05T05:22:14;16.90;99.90
47521;DHT22;32291;52.010;4.446;2022-08-05T05:23:16;17.00;99.90
47521;DHT22;32291;52.010;4.446;2022-08-05T05:24:18;16.90;99.90
47521;DHT22;32291;52.010;4.446;2022-08-05T05:25:22;16.90;99.90
47521;DHT22;32291;52.010;4.446;2022-08-05T05:26:24;17.00;99.90
47521;DHT22;32291;52.010;4.446;2022-08-05T05:27:31;17.00;99.90
47521;DHT22;32291;52.010;4.446;2022-08-05T05:28:35;17.00;99.90
47521;DHT22;32291;52.010;4.446;2022-08-05T05:29:37;17.00;99.90
47521;DHT22;32291;52.010;4.446;2022-08-05T05:30:39;17.00;99.90
47521;DHT22;32291;52.010;4.446;2022-08-05T05:31:41;17.00;99.90
47521;DHT22;32291;52.010;4.446;2022-08-05T05:32:44;17.00;99.90
47521;DHT22;32291;52.010;4.446;2022-08-05T05:33:46;17.00;99.90
47521;DHT22;32291;52.010;4.446;2022-08-05T05:34:48;17.00;99.90
47521;DHT22;32291;52.010;4.446;2022-08-05T05:35:50;17.00;99.90
47521;DHT22;32291;52.010;4.446;2022-08-05T05:36:53;17.10;99.90
47521;DHT22;32291;52.010;4.446;2022-08-05T05:37:56;17.10;99.90
47521;DHT22;32291;52.010;4.446;2022-08-05T05:39:07;17.10;99.90
47521;DHT22;32291;52.010;4.446;2022-08-05T05:40:14;17.10;99.90
47521;DHT22;32291;52.010;4.446;2022-08-05T05:41:19;17.10;99.90
47521;DHT22;32291;52.010;4.446;2022-08-05T05:42:21;17.20;99.90
47521;DHT22;32291;52.010;4.446;2022-08-05T05:43:24;16.10;99.90
47521;DHT22;32291;52.010;4.446;2022-08-05T05:44:26;17.20;99.90
47521;DHT22;32291;52.010;4.446;2022-08-05T05:45:28;17.20;99.90
47521;DHT22;32291;52.010;4.446;2022-08-05T05:46:30;17.20;99.90
47521;DHT22;32291;52.010;4.446;2022-08-05T05:47:34;17.20;99.90
47521;DHT22;32291;52.010;4.446;2022-08-05T05:48:36;17.30;99.90
47521;DHT22;32291;52.010;4.446;2022-08-05T05:49:38;17.30;99.90
47521;DHT22;32291;52.010;4.446;2022-08-05T05:50:40;17.30;99.90
47521;DHT22;32291;52.010;4.446;2022-08-05T05:51:42;17.70;99.90
47521;DHT22;32291;52.010;4.446;2022-08-05T05:52:46;17.40;99.90
47521;DHT22;32291;52.010;4.446;2022-08-05T05:53:50;17.30;99.90
47521;DHT22;32291;52.010;4.446;2022-08-05T05:54:53;17.40;99.90
47521;DHT22;32291;52.010;4.446;2022-08-05T05:55:55;17.40;99.90
47521;DHT22;32291;52.010;4.446;2022-08-05T05:56:57;17.30;99.90
47521;DHT22;32291;52.010;4.446;2022-08-05T05:57:59;17.40;99.90
47521;DHT22;32291;52.010;4.446;2022-08-05T05:59:03;17.40;99.90
47521;DHT22;32291;52.010;4.446;2022-08-05T06:00:11;17.40;99.90
47521;DHT22;32291;52.010;4.446;2022-08-05T06:01:20;17.40;99.90
47521;DHT22;32291;52.010;4.446;2022-08-05T06:02:23;17.40;99.90
47521;DHT22;32291;52.010;4.446;2022-08-05T06:03:26;17.40;99.90
47521;DHT22;32291;52.010;4.446;2022-08-05T06:04:28;17.50;99.90
47521;DHT22;32291;52.010;4.446;2022-08-05T06:05:30;17.50;99.90
47521;DHT22;32291;52.010;4.446;2022-08-05T06:06:34;17.50;99.90
47521;DHT22;32291;52.010;4.446;2022-08-05T06:07:37;17.50;99.90
47521;DHT22;32291;52.010;4.446;2022-08-05T06:08:40;17.60;99.90
47521;DHT22;32291;52.010;4.446;2022-08-05T06:09:43;17.60;99.90
47521;DHT22;32291;52.010;4.446;2022-08-05T06:10:45;17.60;99.90
47521;DHT22;32291;52.010;4.446;2022-08-05T06:11:47;17.60;99.90
47521;DHT22;32291;52.010;4.446;2022-08-05T06:12:49;17.60;99.90
47521;DHT22;32291;52.010;4.446;2022-08-05T06:13:53;17.60;99.90
47521;DHT22;32291;52.010;4.446;2022-08-05T06:15:00;17.70;99.90
47521;DHT22;32291;52.010;4.446;2022-08-05T06:16:07;17.70;99.90
47521;DHT22;32291;52.010;4.446;2022-08-05T06:17:10;17.70;99.90
47521;DHT22;32291;52.010;4.446;2022-08-05T06:18:13;17.70;99.90
47521;DHT22;32291;52.010;4.446;2022-08-05T06:19:15;17.70;99.90
47521;DHT22;32291;52.010;4.446;2022-08-05T06:20:17;17.80;99.90
47521;DHT22;32291;52.010;4.446;2022-08-05T06:21:19;17.80;99.90
47521;DHT22;32291;52.010;4.446;2022-08-05T06:22:27;17.80;99.90
47521;DHT22;32291;52.010;4.446;2022-08-05T06:23:32;17.80;99.90
47521;DHT22;32291;52.010;4.446;2022-08-05T06:24:39;17.80;99.90
47521;DHT22;32291;52.010;4.446;2022-08-05T06:25:43;17.90;99.90
47521;DHT22;32291;52.010;4.446;2022-08-05T06:26:45;17.90;99.90
47521;DHT22;32291;52.010;4.446;2022-08-05T06:27:47;17.90;99.90
47521;DHT22;32291;52.010;4.446;2022-08-05T06:28:49;17.90;99.90
47521;DHT22;32291;52.010;4.446;2022-08-05T06:29:51;17.90;99.90
47521;DHT22;32291;52.010;4.446;2022-08-05T06:30:54;18.00;99.90
47521;DHT22;32291;52.010;4.446;2022-08-05T06:31:56;18.00;99.90
47521;DHT22;32291;52.010;4.446;2022-08-05T06:32:58;18.00;99.90
47521;DHT22;32291;52.010;4.446;2022-08-05T06:34:00;18.00;99.90
47521;DHT22;32291;52.010;4.446;2022-08-05T06:35:03;18.00;99.90
47521;DHT22;32291;52.010;4.446;2022-08-05T06:36:06;18.10;99.90
47521;DHT22;32291;52.010;4.446;2022-08-05T06:37:08;18.10;99.90
47521;DHT22;32291;52.010;4.446;2022-08-05T06:38:10;18.10;99.90
47521;DHT22;32291;52.010;4.446;2022-08-05T06:39:12;18.10;99.90
47521;DHT22;32291;52.010;4.446;2022-08-05T06:40:15;18.10;99.90
47521;DHT22;32291;52.010;4.446;2022-08-05T06:41:17;18.20;99.90
47521;DHT22;32291;52.010;4.446;2022-08-05T06:42:20;18.20;99.90
47521;DHT22;32291;52.010;4.446;2022-08-05T06:43:22;18.20;99.90
47521;DHT22;32291;52.010;4.446;2022-08-05T06:44:24;18.30;99.90
47521;DHT22;32291;52.010;4.446;2022-08-05T06:45:26;18.30;99.90
47521;DHT22;32291;52.010;4.446;2022-08-05T06:46:28;18.30;99.90
47521;DHT22;32291;52.010;4.446;2022-08-05T06:47:30;18.30;99.90
47521;DHT22;32291;52.010;4.446;2022-08-05T06:48:32;18.30;99.90
47521;DHT22;32291;52.010;4.446;2022-08-05T06:49:36;19.60;99.90
47521;DHT22;32291;52.010;4.446;2022-08-05T06:50:38;18.40;99.90
47521;DHT22;32291;52.010;4.446;2022-08-05T06:51:43;18.40;99.90
47521;DHT22;32291;52.010;4.446;2022-08-05T06:52:45;18.50;99.90
47521;DHT22;32291;52.010;4.446;2022-08-05T06:53:47;18.50;99.90
47521;DHT22;32291;52.010;4.446;2022-08-05T06:54:50;18.50;99.90
47521;DHT22;32291;52.010;4.446;2022-08-05T06:55:53;18.50;99.90
47521;DHT22;32291;52.010;4.446;2022-08-05T06:56:55;18.50;99.90
47521;DHT22;32291;52.010;4.446;2022-08-05T06:57:56;18.60;99.90
47521;DHT22;32291;52.010;4.446;2022-08-05T06:58:58;18.70;99.90
47521;DHT22;32291;52.010;4.446;2022-08-05T07:00:00;18.70;99.90
47521;DHT22;32291;52.010;4.446;2022-08-05T07:01:05;18.80;99.90
47521;DHT22;32291;52.010;4.446;2022-08-05T07:02:07;18.80;99.90